createdAt,value
2018-06-12T00:02:14.435Z,29.67
2018-06-12T00:04:45.140Z,32.67
2018-06-12T00:07:15.814Z,31.17
2018-06-12T00:09:46.580Z,31.53
2018-06-12T00:12:17.538Z,30.57
2018-06-12T00:14:48.308Z,31.43
2018-06-12T00:17:19.013Z,31.33
2018-06-12T00:19:50.146Z,32.27
2018-06-12T00:22:21.447Z,34.27
2018-06-12T00:24:52.159Z,28.50
2018-06-12T00:27:22.832Z,35.00
2018-06-12T00:29:53.262Z,35.37
2018-06-12T00:32:24.111Z,39.37
2018-06-12T00:34:54.827Z,40.53
2018-06-12T00:37:25.785Z,40.70
2018-06-12T00:39:55.988Z,41.27
2018-06-12T00:42:26.694Z,43.10
2018-06-12T00:44:57.326Z,45.43
2018-06-12T00:47:28.512Z,45.03
2018-06-12T00:49:59.679Z,48.10
2018-06-12T00:52:30.475Z,44.77
2018-06-12T00:55:01.537Z,49.30
2018-06-12T00:57:32.897Z,51.57
2018-06-12T01:00:03.759Z,49.13
2018-06-12T01:02:34.872Z,53.40
2018-06-12T01:05:05.802Z,53.43
2018-06-12T01:07:36.537Z,55.13
2018-06-12T01:10:07.573Z,62.20
2018-06-12T01:12:38.314Z,54.93
2018-06-12T01:15:09.445Z,70.30
2018-06-12T01:17:42.189Z,58.53
2018-06-12T01:20:13.036Z,49.80
2018-06-12T01:22:43.485Z,60.57
2018-06-12T01:25:15.013Z,58.60
2018-06-12T01:27:46.096Z,57.33
2018-06-12T01:30:17.169Z,66.80
2018-06-12T01:32:48.247Z,76.23
2018-06-12T01:35:19.387Z,73.30
2018-06-12T01:37:50.477Z,82.53
2018-06-12T01:40:21.864Z,84.07
2018-06-12T01:42:53.018Z,84.50
2018-06-12T01:45:24.275Z,91.00
2018-06-12T01:47:55.336Z,92.27
2018-06-12T01:50:26.598Z,97.07
2018-06-12T01:52:57.575Z,87.43
2018-06-12T01:55:28.569Z,91.20
2018-06-12T01:58:04.963Z,86.50
2018-06-12T02:00:35.936Z,91.93
2018-06-12T02:03:07.168Z,88.00
2018-06-12T02:05:38.327Z,82.40
2018-06-12T02:08:09.465Z,72.30
2018-06-12T02:10:40.446Z,76.63
2018-06-12T02:13:11.563Z,72.87
2018-06-12T02:15:42.700Z,80.90
2018-06-12T02:18:29.798Z,71.73
2018-06-12T02:21:00.953Z,63.80
2018-06-12T02:23:32.207Z,56.13
2018-06-12T02:26:03.359Z,55.33
2018-06-12T02:28:34.284Z,47.43
2018-06-12T02:31:05.324Z,43.67
2018-06-12T02:33:48.578Z,36.13
2018-06-12T02:36:19.666Z,31.63
2018-06-12T02:38:50.581Z,33.10
2018-06-12T02:41:21.465Z,27.63
2018-06-12T02:43:52.384Z,30.57
2018-06-12T02:46:23.313Z,27.83
2018-06-12T02:48:54.659Z,29.27
2018-06-12T02:51:26.063Z,28.10
2018-06-12T02:57:13.843Z,31.47
2018-06-12T02:59:44.828Z,31.57
2018-06-12T03:02:15.832Z,32.67
2018-06-12T03:04:46.873Z,26.50
2018-06-12T03:07:17.719Z,27.17
2018-06-12T03:09:48.154Z,26.03
2018-06-12T03:12:18.658Z,23.97
2018-06-12T03:14:49.681Z,27.67
2018-06-12T03:17:20.899Z,29.47
2018-06-12T03:19:51.908Z,34.23
2018-06-12T03:22:22.768Z,29.70
2018-06-12T03:24:53.915Z,33.03
2018-06-12T03:27:25.673Z,30.57
2018-06-12T03:29:56.552Z,31.70
2018-06-12T03:32:27.600Z,28.63
2018-06-12T03:34:58.438Z,28.77
2018-06-12T03:37:29.437Z,27.60
2018-06-12T03:40:02.372Z,30.33
2018-06-12T03:42:33.516Z,28.30
2018-06-12T03:45:04.925Z,27.70
2018-06-12T03:47:35.895Z,29.97
2018-06-12T03:50:07.115Z,29.97
2018-06-12T03:52:38.090Z,34.90
2018-06-12T03:55:09.026Z,30.30
2018-06-12T03:57:40.435Z,27.30
2018-06-12T04:00:11.678Z,33.00
2018-06-12T04:02:42.296Z,28.50
2018-06-12T04:05:31.380Z,24.87
2018-06-12T04:08:02.611Z,30.87
2018-06-12T04:10:33.717Z,29.57
2018-06-12T04:13:04.902Z,23.67
2018-06-12T04:15:36.177Z,22.00
2018-06-12T04:18:07.404Z,18.73
2018-06-12T04:20:38.007Z,18.77
2018-06-12T04:23:10.277Z,16.77
2018-06-12T04:25:41.572Z,19.60
2018-06-12T04:28:12.744Z,20.47
2018-06-12T04:30:43.771Z,20.47
2018-06-12T04:33:14.965Z,17.37
2018-06-12T04:35:45.790Z,16.00
2018-06-12T04:38:16.739Z,17.63
2018-06-12T04:40:47.823Z,18.87
2018-06-12T04:43:19.075Z,15.97
2018-06-12T04:45:49.876Z,17.67
2018-06-12T04:51:31.737Z,15.80
2018-06-12T04:54:02.428Z,14.63
2018-06-12T04:56:34.093Z,14.87
2018-06-12T04:59:05.767Z,14.87
2018-06-12T05:01:36.592Z,13.00
2018-06-12T05:04:07.285Z,12.80
2018-06-12T05:06:38.185Z,12.17
2018-06-12T05:09:09.200Z,10.40
2018-06-12T05:11:40.027Z,11.03
2018-06-12T05:14:10.703Z,13.60
2018-06-12T05:16:41.395Z,12.90
2018-06-12T05:19:12.127Z,12.33
2018-06-12T05:21:42.757Z,12.00
2018-06-12T05:24:13.690Z,12.57
2018-06-12T05:26:45.996Z,11.20
2018-06-12T05:29:16.705Z,13.60
2018-06-12T05:31:53.475Z,13.30
2018-06-12T05:34:37.804Z,11.27
2018-06-12T05:37:08.872Z,14.73
2018-06-12T05:39:39.619Z,14.27
2018-06-12T05:42:10.651Z,15.77
2018-06-12T05:44:41.852Z,13.13
2018-06-12T05:47:12.859Z,14.30
2018-06-12T05:49:43.895Z,13.33
2018-06-12T05:52:14.705Z,13.17
2018-06-12T05:54:45.725Z,14.17
2018-06-12T05:57:16.651Z,15.03
2018-06-12T05:59:47.497Z,12.90
2018-06-12T06:02:18.388Z,12.40
2018-06-12T06:04:55.615Z,12.77
2018-06-12T06:07:26.754Z,13.10
2018-06-12T06:09:57.429Z,11.30
2018-06-12T06:12:28.243Z,11.00
2018-06-12T06:15:00.295Z,11.30
2018-06-12T06:17:31.145Z,11.93
2018-06-12T06:20:02.000Z,12.67
2018-06-12T06:22:32.987Z,11.47
2018-06-12T06:25:03.893Z,9.87
2018-06-12T06:27:34.745Z,10.13
2018-06-12T06:30:05.570Z,9.50
2018-06-12T06:32:36.459Z,8.90
2018-06-12T06:35:07.419Z,9.77
2018-06-12T06:37:38.255Z,12.13
2018-06-12T06:40:09.116Z,11.53
2018-06-12T06:42:39.858Z,10.33
2018-06-12T06:45:10.845Z,8.57
2018-06-12T06:47:41.574Z,9.43
2018-06-12T06:50:12.352Z,9.50
2018-06-12T06:52:43.086Z,10.33
2018-06-12T06:55:13.943Z,8.90
2018-06-12T06:57:44.770Z,9.23
2018-06-12T07:00:15.552Z,9.20
2018-06-12T07:02:46.251Z,9.90
2018-06-12T07:05:40.208Z,10.07
2018-06-12T07:08:11.104Z,10.47
2018-06-12T07:10:43.150Z,10.53
2018-06-12T07:13:13.965Z,9.87
2018-06-12T07:15:44.868Z,10.40
2018-06-12T07:18:15.541Z,10.07
2018-06-12T07:21:23.135Z,8.93
2018-06-12T07:23:53.900Z,9.00
2018-06-12T07:26:24.727Z,9.30
2018-06-12T07:28:55.600Z,9.90
2018-06-12T07:31:26.371Z,12.10
2018-06-12T07:33:57.048Z,9.63
2018-06-12T07:36:27.936Z,9.83
2018-06-12T07:38:58.762Z,9.87
2018-06-12T07:41:35.491Z,9.20
2018-06-12T07:44:06.244Z,9.07
2018-06-12T07:46:37.151Z,9.13
2018-06-12T07:49:07.976Z,8.07
2018-06-12T07:51:38.860Z,9.43
2018-06-12T07:54:09.687Z,10.37
2018-06-12T07:56:40.578Z,9.87
2018-06-12T07:59:11.527Z,8.50
2018-06-12T08:01:42.305Z,8.87
2018-06-12T08:04:13.153Z,8.33
2018-06-12T08:06:43.939Z,10.13
2018-06-12T08:09:34.365Z,8.70
2018-06-12T08:12:05.201Z,8.97
2018-06-12T08:14:35.928Z,9.80
2018-06-12T08:17:06.581Z,8.70
2018-06-12T08:19:37.328Z,9.07
2018-06-12T08:22:08.074Z,9.90
2018-06-12T08:24:38.772Z,11.93
2018-06-12T08:27:09.717Z,10.97
2018-06-12T08:30:04.269Z,9.60
2018-06-12T08:32:35.112Z,10.53
2018-06-12T08:35:06.032Z,9.30
2018-06-12T08:37:37.008Z,8.73
2018-06-12T08:40:08.167Z,10.73
2018-06-12T08:42:38.878Z,10.20
2018-06-12T08:45:09.720Z,11.23
2018-06-12T08:47:40.512Z,10.57
2018-06-12T08:50:11.282Z,10.30
2018-06-12T08:52:42.145Z,9.70
2018-06-12T08:55:12.927Z,9.50
2018-06-12T08:57:43.728Z,9.83
2018-06-12T09:00:14.608Z,9.70
2018-06-12T09:02:45.311Z,10.60
2018-06-12T09:05:16.060Z,11.20
2018-06-12T09:07:46.869Z,9.97
2018-06-12T09:10:17.699Z,9.67
2018-06-12T09:12:48.451Z,9.17
2018-06-12T09:15:19.386Z,9.67
2018-06-12T09:17:50.179Z,8.30
2018-06-12T09:20:21.068Z,10.00
2018-06-12T09:22:51.854Z,8.33
2018-06-12T09:25:22.724Z,8.47
2018-06-12T09:27:53.741Z,9.10
2018-06-12T09:30:24.771Z,8.65
2018-06-12T09:32:55.495Z,8.58
2018-06-12T09:35:26.312Z,8.95
2018-06-12T09:37:57.083Z,9.35
2018-06-12T09:40:27.971Z,9.83
2018-06-12T09:42:58.812Z,9.00
2018-06-12T09:45:29.688Z,9.30
2018-06-12T09:48:00.580Z,8.40
2018-06-12T09:50:31.587Z,9.00
2018-06-12T09:53:02.451Z,11.40
2018-06-12T09:55:33.296Z,9.97
2018-06-12T09:58:04.220Z,9.10
2018-06-12T10:00:40.028Z,9.23
2018-06-12T10:03:10.861Z,8.80
2018-06-12T10:05:42.778Z,8.73
2018-06-12T10:08:13.594Z,11.83
2018-06-12T10:10:44.411Z,9.50
2018-06-12T10:13:15.338Z,10.57
2018-06-12T10:15:46.222Z,9.87
2018-06-12T10:18:17.100Z,9.95
2018-06-12T10:20:47.792Z,10.67
2018-06-12T10:23:18.607Z,8.75
2018-06-12T10:25:49.407Z,9.28
2018-06-12T10:28:20.091Z,9.63
2018-06-12T10:30:50.921Z,9.25
2018-06-12T10:33:21.821Z,10.50
2018-06-12T10:36:10.634Z,8.50
2018-06-12T10:38:41.448Z,8.93
2018-06-12T10:41:12.151Z,8.10
2018-06-12T10:43:43.136Z,8.35
2018-06-12T10:46:13.761Z,9.53
2018-06-12T10:48:44.594Z,7.95
2018-06-12T10:51:15.446Z,10.70
2018-06-12T10:53:46.238Z,8.68
2018-06-12T10:56:17.010Z,8.68
2018-06-12T10:58:47.987Z,10.08
2018-06-12T11:01:18.790Z,9.23
2018-06-12T11:03:49.787Z,11.45
2018-06-12T11:06:20.673Z,10.40
2018-06-12T11:08:51.707Z,10.38
2018-06-12T11:11:22.824Z,10.15
2018-06-12T11:13:53.743Z,11.05
2018-06-12T11:16:24.715Z,10.48
2018-06-12T11:18:55.626Z,10.80
2018-06-12T11:21:26.557Z,12.85
2018-06-12T11:23:57.320Z,10.32
2018-06-12T11:26:28.168Z,11.37
2018-06-12T11:28:58.982Z,8.75
2018-06-12T11:31:29.688Z,11.28
2018-06-12T11:34:00.581Z,9.50
2018-06-12T11:36:31.420Z,8.93
2018-06-12T11:39:02.277Z,9.48
2018-06-12T11:41:32.955Z,10.05
2018-06-12T11:44:03.856Z,9.20
2018-06-12T11:46:34.731Z,10.08
2018-06-12T11:49:05.539Z,8.60
2018-06-12T11:54:36.846Z,8.88
2018-06-12T11:57:07.547Z,10.58
2018-06-12T11:59:38.308Z,9.65
2018-06-12T12:02:09.134Z,11.38
2018-06-12T12:04:39.816Z,10.63
2018-06-12T12:07:10.614Z,9.63
2018-06-12T12:09:41.416Z,7.80
2018-06-12T12:12:12.193Z,9.05
2018-06-12T12:14:43.051Z,8.85
2018-06-12T12:17:13.861Z,9.38
2018-06-12T12:19:44.643Z,9.55
2018-06-12T12:22:15.432Z,10.13
2018-06-12T12:24:46.260Z,8.75
2018-06-12T12:27:16.987Z,9.90
2018-06-12T12:29:47.760Z,9.37
2018-06-12T12:32:18.509Z,9.13
2018-06-12T12:34:49.317Z,8.90
2018-06-12T12:37:20.106Z,10.73
2018-06-12T12:39:50.851Z,9.17
2018-06-12T12:42:21.600Z,10.80
2018-06-12T12:44:52.337Z,9.27
2018-06-12T12:47:23.042Z,10.90
2018-06-12T12:49:53.876Z,10.30
2018-06-12T12:52:24.839Z,10.33
2018-06-12T12:54:55.719Z,10.80
2018-06-12T12:57:26.499Z,10.70
2018-06-12T12:59:57.520Z,10.60
2018-06-12T13:02:28.281Z,11.40
2018-06-12T13:04:59.076Z,11.27
2018-06-12T13:07:29.887Z,13.83
2018-06-12T13:10:00.713Z,11.60
2018-06-12T13:12:31.559Z,9.80
2018-06-12T13:15:02.412Z,10.47
2018-06-12T13:17:33.294Z,10.83
2018-06-12T13:20:04.183Z,15.27
2018-06-12T13:22:34.973Z,11.20
2018-06-12T13:25:05.724Z,13.03
2018-06-12T13:27:36.532Z,10.80
2018-06-12T13:30:07.381Z,11.50
2018-06-12T13:32:56.270Z,11.53
2018-06-12T13:35:27.316Z,10.90
2018-06-12T13:37:58.117Z,11.87
2018-06-12T13:40:29.665Z,10.60
2018-06-12T13:43:00.495Z,11.53
2018-06-12T13:45:31.475Z,10.87
2018-06-12T13:48:01.660Z,10.33
2018-06-12T13:50:32.191Z,10.67
2018-06-12T13:53:03.081Z,12.73
2018-06-12T13:55:34.012Z,10.37
2018-06-12T13:58:04.972Z,10.67
2018-06-12T14:00:35.855Z,10.63
2018-06-12T14:03:07.540Z,10.50
2018-06-12T14:05:38.235Z,10.30
2018-06-12T14:08:09.016Z,10.00
2018-06-12T14:10:39.800Z,10.47
2018-06-12T14:13:10.788Z,9.80
2018-06-12T14:15:41.698Z,10.00
2018-06-12T14:18:12.629Z,10.37
2018-06-12T14:20:43.330Z,9.67
2018-06-12T14:23:14.199Z,13.17
2018-06-12T14:25:45.145Z,10.40
2018-06-12T14:28:19.654Z,12.37
2018-06-12T14:30:50.334Z,9.73
2018-06-12T14:36:28.986Z,10.43
2018-06-12T14:38:59.971Z,10.93
2018-06-12T14:41:30.708Z,10.27
2018-06-12T14:44:01.482Z,10.07
2018-06-12T14:46:32.229Z,9.53
2018-06-12T14:49:12.250Z,9.93
2018-06-12T14:51:43.086Z,9.60
2018-06-12T14:54:13.937Z,11.43
2018-06-12T14:56:44.697Z,10.10
2018-06-12T14:59:15.387Z,10.40
2018-06-12T15:01:46.198Z,11.23
2018-06-12T15:07:18.286Z,11.80
2018-06-12T15:09:49.026Z,11.30
2018-06-12T15:12:19.805Z,12.77
2018-06-12T15:15:12.456Z,12.23
2018-06-12T15:17:43.430Z,12.90
2018-06-12T15:20:14.331Z,15.07
2018-06-12T15:22:45.570Z,13.07
2018-06-12T15:25:16.499Z,13.07
2018-06-12T15:27:47.272Z,13.37
2018-06-12T15:30:17.988Z,12.97
2018-06-12T15:32:48.735Z,13.17
2018-06-12T15:35:19.492Z,12.73
2018-06-12T15:40:45.987Z,12.80
2018-06-12T15:43:16.709Z,12.03
2018-06-12T15:45:47.422Z,12.93
2018-06-12T15:48:18.293Z,12.33
2018-06-12T15:50:48.993Z,14.93
2018-06-12T15:53:19.793Z,12.87
2018-06-12T15:55:50.545Z,13.57
2018-06-12T15:58:21.437Z,13.33
2018-06-12T16:00:52.229Z,13.13
2018-06-12T16:03:23.095Z,13.10
2018-06-12T16:06:12.095Z,14.77
2018-06-12T16:08:43.190Z,14.87
2018-06-12T16:11:14.047Z,13.80
2018-06-12T16:13:44.849Z,14.70
2018-06-12T16:16:15.886Z,14.90
2018-06-12T16:18:46.643Z,15.37
2018-06-12T16:21:17.453Z,14.53
2018-06-12T16:23:49.735Z,14.83
2018-06-12T16:26:21.497Z,14.47
2018-06-12T16:32:01.042Z,14.37
2018-06-12T16:34:31.831Z,15.07
2018-06-12T16:37:03.653Z,15.47
2018-06-12T16:39:34.446Z,14.93
2018-06-12T16:42:06.133Z,15.50
2018-06-12T16:44:36.970Z,17.83
2018-06-12T16:47:07.726Z,17.13
2018-06-12T16:49:38.595Z,16.53
2018-06-12T16:52:09.437Z,17.70
2018-06-12T16:54:40.215Z,17.53
2018-06-12T16:57:10.914Z,19.30
2018-06-12T16:59:42.377Z,19.40
2018-06-12T17:02:13.182Z,19.50
2018-06-12T17:04:48.600Z,18.77
2018-06-12T17:07:19.407Z,20.67
2018-06-12T17:09:50.230Z,20.93
2018-06-12T17:12:28.151Z,19.50
2018-06-12T17:15:04.421Z,21.53
2018-06-12T17:17:35.356Z,21.83
2018-06-12T17:20:06.328Z,22.27
2018-06-12T17:22:37.873Z,23.30
2018-06-12T17:25:08.889Z,32.33
2018-06-12T17:27:39.724Z,23.53
2018-06-12T17:30:11.119Z,21.97
2018-06-12T17:32:42.421Z,23.33
2018-06-12T17:35:13.543Z,21.10
2018-06-12T17:37:51.730Z,20.80
2018-06-12T17:40:24.287Z,21.07
2018-06-12T17:42:54.604Z,20.93
2018-06-12T17:45:25.235Z,24.57
2018-06-12T17:47:56.090Z,23.33
2018-06-12T17:50:34.872Z,22.23
2018-06-12T17:56:07.588Z,22.97
2018-06-12T17:58:38.517Z,22.67
2018-06-12T18:01:09.395Z,24.57
2018-06-12T18:03:40.471Z,25.23
2018-06-12T18:06:11.355Z,25.93
2018-06-12T18:08:42.439Z,26.27
2018-06-12T18:11:13.453Z,26.50
2018-06-12T18:13:47.210Z,24.07
2018-06-12T18:16:18.042Z,26.07
2018-06-12T18:18:49.128Z,27.40
2018-06-12T18:21:19.833Z,24.60
2018-06-12T18:23:50.951Z,26.53
2018-06-12T18:26:21.911Z,30.33
2018-06-12T18:28:52.891Z,25.07
2018-06-12T18:31:23.922Z,27.10
2018-06-12T18:34:04.521Z,25.77
2018-06-12T18:36:35.994Z,24.63
2018-06-12T18:39:08.484Z,25.90
2018-06-12T18:41:39.480Z,24.90
2018-06-12T18:44:10.654Z,23.50
2018-06-12T18:46:42.413Z,23.73
2018-06-12T18:49:13.158Z,23.53
2018-06-12T18:51:43.936Z,23.87
2018-06-12T18:54:14.853Z,23.10
2018-06-12T18:56:45.691Z,22.20
2018-06-12T18:59:30.212Z,22.13
2018-06-12T19:02:01.388Z,22.57
2018-06-12T19:04:32.552Z,23.53
2018-06-12T19:07:03.546Z,21.90
2018-06-12T19:09:34.992Z,20.83
2018-06-12T19:12:06.071Z,21.33
2018-06-12T19:14:37.129Z,21.77
2018-06-12T19:17:07.964Z,20.67
2018-06-12T19:19:38.656Z,20.63
2018-06-12T19:22:12.801Z,21.33
2018-06-12T19:24:43.729Z,18.70
2018-06-12T19:27:14.542Z,19.57
2018-06-12T19:29:46.181Z,19.93
2018-06-12T19:32:16.929Z,17.93
2018-06-12T19:34:47.771Z,18.10
2018-06-12T19:37:18.757Z,19.37
2018-06-12T19:39:49.845Z,18.03
2018-06-12T19:42:20.656Z,18.50
2018-06-12T19:44:51.496Z,18.33
2018-06-12T19:47:22.368Z,19.03
2018-06-12T19:49:53.246Z,17.87
2018-06-12T19:52:24.719Z,17.83
2018-06-12T19:54:55.621Z,17.80
2018-06-12T19:57:26.213Z,19.77
2018-06-12T20:00:11.343Z,16.93
2018-06-12T20:02:42.017Z,18.33
2018-06-12T20:05:12.851Z,18.90
2018-06-12T20:07:43.586Z,19.07
2018-06-12T20:10:14.357Z,18.00
2018-06-12T20:12:45.224Z,17.23
2018-06-12T20:15:15.984Z,17.33
2018-06-12T20:17:46.643Z,17.20
2018-06-12T20:20:17.376Z,15.93
2018-06-12T20:22:48.402Z,15.80
2018-06-12T20:25:19.180Z,13.77
2018-06-12T20:27:50.483Z,12.30
2018-06-12T20:30:21.467Z,12.50
2018-06-12T20:32:52.410Z,11.80
2018-06-12T20:35:23.111Z,12.00
2018-06-12T20:37:53.847Z,11.97
2018-06-12T20:40:24.582Z,10.07
2018-06-12T20:42:55.733Z,9.73
2018-06-12T20:45:26.538Z,11.20
2018-06-12T20:47:57.449Z,9.57
2018-06-12T20:50:28.291Z,9.57
2018-06-12T20:52:59.097Z,8.10
2018-06-12T20:55:29.765Z,9.47
2018-06-12T20:58:00.452Z,8.53
2018-06-12T21:00:31.193Z,7.23
2018-06-12T21:03:13.089Z,7.63
2018-06-12T21:05:43.823Z,7.90
2018-06-12T21:08:14.820Z,6.50
2018-06-12T21:10:45.870Z,7.57
2018-06-12T21:13:16.889Z,8.50
2018-06-12T21:15:47.680Z,7.37
2018-06-12T21:18:18.949Z,6.17
2018-06-12T21:20:49.659Z,7.50
2018-06-12T21:23:21.301Z,6.23
2018-06-12T21:25:52.020Z,8.33
2018-06-12T21:28:32.958Z,10.20
2018-06-12T21:31:03.899Z,6.50
2018-06-12T21:33:34.696Z,6.47
2018-06-12T21:36:05.329Z,6.13
2018-06-12T21:38:36.128Z,7.57
2018-06-12T21:41:07.037Z,8.33
2018-06-12T21:43:37.912Z,8.90
2018-06-12T21:46:08.898Z,5.90
2018-06-12T21:48:40.189Z,5.93
2018-06-12T21:51:11.248Z,8.90
2018-06-12T21:53:42.061Z,6.73
2018-06-12T21:56:13.120Z,6.93
2018-06-12T21:58:44.267Z,7.67
2018-06-12T22:01:16.102Z,8.03
2018-06-12T22:03:46.771Z,7.03
2018-06-12T22:06:17.690Z,8.87
2018-06-12T22:08:48.487Z,7.30
2018-06-12T22:11:19.250Z,8.50
2018-06-12T22:13:50.288Z,8.93
2018-06-12T22:16:23.726Z,7.47
2018-06-12T22:19:00.599Z,7.23
2018-06-12T22:21:31.559Z,7.23
2018-06-12T22:24:02.565Z,6.73
2018-06-12T22:26:33.269Z,7.03
2018-06-12T22:29:03.907Z,7.03
2018-06-12T22:31:34.580Z,8.00
2018-06-12T22:34:05.289Z,7.23
2018-06-12T22:36:36.012Z,8.87
2018-06-12T22:39:08.891Z,7.30
2018-06-12T22:41:39.620Z,7.20
2018-06-12T22:44:10.469Z,6.70
2018-06-12T22:46:41.183Z,8.93
2018-06-12T22:49:12.047Z,7.30
2018-06-12T22:51:42.724Z,7.63
2018-06-12T22:54:13.538Z,8.73
2018-06-12T22:56:44.175Z,6.70
2018-06-12T22:59:14.899Z,6.57
2018-06-12T23:01:45.619Z,10.27
2018-06-12T23:04:16.322Z,8.50
2018-06-12T23:06:46.988Z,7.63
2018-06-12T23:09:18.253Z,9.20
2018-06-12T23:11:48.938Z,7.03
2018-06-12T23:14:19.637Z,7.57
2018-06-12T23:16:50.884Z,8.87
2018-06-12T23:19:21.850Z,8.93
2018-06-12T23:22:01.968Z,9.17
2018-06-12T23:24:32.807Z,8.73
2018-06-12T23:27:03.849Z,10.73
2018-06-12T23:29:34.991Z,8.80
2018-06-12T23:32:06.026Z,11.67
2018-06-12T23:34:37.063Z,8.77
2018-06-12T23:37:07.908Z,9.73
2018-06-12T23:39:38.916Z,8.33
2018-06-12T23:42:09.563Z,8.07
2018-06-12T23:44:40.459Z,10.30
2018-06-12T23:47:11.622Z,8.67
2018-06-12T23:49:42.414Z,9.77
2018-06-12T23:52:13.538Z,9.60
2018-06-12T23:54:44.498Z,12.90
2018-06-12T23:57:15.462Z,7.97
2018-06-12T23:59:46.367Z,11.63
